Time;durP1;ratioP1;P1;durP2;ratioP2;P2;SDS_P1;SDS_P2;PMS_P1;PMS_P2;Temp;Humidity;BMP_temperature;BMP_pressure;BME280_temperature;BME280_humidity;BME280_pressure;Samples;Min_cycle;Max_cycle;Signal;HPM_P1;HPM_P2
2022/04/04 00:00:52;;;;;;;33.53;23.73;;;179.30;2252.80;;;;;;4940151;29;20417;-83
2022/04/04 00:03:18;;;;;;;31.85;22.40;;;179.30;2252.80;;;;;;4941081;29;20023;-81
2022/04/04 00:05:44;;;;;;;31.05;23.48;;;179.40;2252.80;;;;;;4941167;29;20027;-82
2022/04/04 00:08:10;;;;;;;30.67;23.77;;;154.50;2252.80;;;;;;4939926;29;20058;-81
2022/04/04 00:10:38;;;;;;;33.97;24.90;;;154.40;2252.80;;;;;;4939917;29;20047;-80
2022/04/04 00:13:04;;;;;;;30.25;22.38;;;154.30;2252.80;;;;;;4940550;29;20518;-82
2022/04/04 00:15:30;;;;;;;31.02;22.90;;;154.20;2252.80;;;;;;4939725;29;20024;-83
2022/04/04 00:17:57;;;;;;;30.52;22.63;;;154.30;2252.80;;;;;;4939559;29;20085;-80
2022/04/04 00:20:23;;;;;;;29.38;22.33;;;154.10;2252.80;;;;;;4939250;29;20024;-76
2022/04/04 00:22:49;;;;;;;26.48;21.15;;;153.90;2252.80;;;;;;4939256;29;20367;-77
2022/04/04 00:25:15;;;;;;;29.92;21.33;;;153.80;2252.80;;;;;;4938786;29;20079;-78
2022/04/04 00:27:41;;;;;;;29.98;22.40;;;153.80;2252.80;;;;;;4939218;29;20020;-78
2022/04/04 00:30:07;;;;;;;29.38;22.50;;;153.90;2252.80;;;;;;4938573;29;20460;-78
2022/04/04 00:32:36;;;;;;;28.42;20.45;;;153.90;2252.80;;;;;;4939153;29;20091;-76
2022/04/04 00:35:02;;;;;;;32.92;23.10;;;154.00;2252.80;;;;;;4939464;29;20063;-81
2022/04/04 00:37:28;;;;;;;33.65;22.00;;;154.10;2252.80;;;;;;4938946;29;20031;-80
2022/04/04 00:39:54;;;;;;;27.52;21.63;;;154.00;2252.80;;;;;;4938646;29;20472;-76
2022/04/04 00:42:20;;;;;;;30.02;22.38;;;153.80;2252.80;;;;;;4938823;29;20024;-77
2022/04/04 00:44:46;;;;;;;31.98;22.23;;;153.80;2252.80;;;;;;4938500;29;20019;-77
2022/04/04 00:47:12;;;;;;;31.98;21.20;;;153.70;2252.80;;;;;;4938986;29;20034;-79
2022/04/04 00:49:38;;;;;;;29.73;22.52;;;153.80;2252.80;;;;;;4938485;29;20078;-76
2022/04/04 00:52:05;;;;;;;28.77;21.85;;;153.80;2252.80;;;;;;4938668;29;20375;-78
2022/04/04 00:54:32;;;;;;;31.88;22.10;;;153.80;2252.80;;;;;;4938449;29;20031;-80
2022/04/04 00:57:01;;;;;;;37.63;26.67;;;154.00;2252.80;;;;;;4938661;29;20496;-76
2022/04/04 00:59:27;;;;;;;35.83;24.98;;;154.00;2252.80;;;;;;4938558;29;20035;-78
2022/04/04 01:01:53;;;;;;;32.85;24.08;;;153.90;2252.80;;;;;;4938428;29;20220;-76
2022/04/04 01:04:19;;;;;;;32.78;24.48;;;153.80;2252.80;;;;;;4938495;29;20055;-76
2022/04/04 01:06:45;;;;;;;31.02;23.15;;;153.90;2252.80;;;;;;4938162;29;20066;-79
2022/04/04 01:09:14;;;;;;;31.80;22.98;;;154.00;2252.80;;;;;;4938220;29;20034;-77
2022/04/04 01:12:05;;;;;;;33.03;23.45;;;154.10;2252.80;;;;;;4937352;29;20055;-77
2022/04/04 01:14:31;;;;;;;33.97;23.98;;;154.10;2252.80;;;;;;4930340;29;20090;-75
2022/04/04 01:16:57;;;;;;;34.92;23.90;;;154.10;2252.80;;;;;;4938292;29;20036;-77
2022/04/04 01:19:23;;;;;;;33.08;22.55;;;154.10;2252.80;;;;;;4938038;29;20516;-75
2022/04/04 01:21:49;;;;;;;33.75;24.75;;;153.90;2252.80;;;;;;4937960;29;20075;-75
2022/04/04 01:24:18;;;;;;;32.38;23.42;;;154.00;2252.80;;;;;;4938250;29;20146;-75
2022/04/04 01:26:47;;;;;;;30.95;22.05;;;153.80;2252.80;;;;;;4937830;29;20035;-77
2022/04/04 01:29:13;;;;;;;29.08;22.70;;;153.70;2252.80;;;;;;4938276;29;20035;-78
2022/04/04 01:31:39;;;;;;;32.95;23.88;;;153.80;2252.80;;;;;;4937934;29;20449;-80
2022/04/04 01:34:05;;;;;;;31.30;23.75;;;153.60;2252.80;;;;;;4937581;29;20095;-77
2022/04/04 01:36:32;;;;;;;30.73;23.05;;;128.90;2252.80;;;;;;4938147;29;20038;-77
2022/04/04 01:38:57;;;;;;;29.48;22.40;;;154.20;2252.80;;;;;;4938015;29;20024;-77
2022/04/04 01:41:24;;;;;;;26.85;21.30;;;153.60;2252.80;;;;;;4940635;29;20077;-77
2022/04/04 01:43:51;;;;;;;29.00;22.25;;;153.80;2252.80;;;;;;4940684;29;20086;-78
2022/04/04 01:46:29;;;;;;;32.78;22.73;;;153.80;2252.80;;;;;;4940823;29;20031;-76
2022/04/04 01:48:58;;;;;;;33.30;22.23;;;153.70;2252.80;;;;;;4940754;29;20019;-78
2022/04/04 01:51:25;;;;;;;31.15;23.08;;;153.60;2252.80;;;;;;4941288;29;20110;-76
2022/04/04 01:53:51;;;;;;;28.67;22.27;;;128.80;2252.80;;;;;;4941378;29;20023;-75
2022/04/04 01:56:17;;;;;;;27.73;22.00;;;128.90;2252.80;;;;;;4942883;29;20039;-78
2022/04/04 01:58:44;;;;;;;33.72;24.30;;;128.90;2252.80;;;;;;4943823;29;20019;-78
2022/04/04 02:01:21;;;;;;;33.90;24.17;;;128.70;2252.80;;;;;;4941805;29;20158;-78
2022/04/04 02:03:50;;;;;;;27.25;21.88;;;153.60;2252.80;;;;;;4940772;29;20019;-78
2022/04/04 02:06:17;;;;;;;29.17;23.00;;;153.80;2252.80;;;;;;4940512;29;20031;-77
2022/04/04 02:08:43;;;;;;;25.83;20.92;;;153.90;2252.80;;;;;;4940049;29;20113;-76
2022/04/04 02:11:09;;;;;;;31.83;23.30;;;153.90;2252.80;;;;;;4940142;29;20459;-76
2022/04/04 02:13:35;;;;;;;34.47;26.85;;;154.10;2252.80;;;;;;4940320;29;20019;-77
2022/04/04 02:16:02;;;;;;;34.63;26.02;;;154.00;2252.80;;;;;;4940746;29;20090;-79
2022/04/04 02:18:29;;;;;;;36.47;26.17;;;154.00;2252.80;;;;;;4941187;29;20122;-77
2022/04/04 02:20:55;;;;;;;37.15;26.40;;;154.00;2252.80;;;;;;4941048;29;20026;-77
2022/04/04 02:23:22;;;;;;;32.65;24.90;;;154.00;2252.80;;;;;;4940697;29;20023;-78
2022/04/04 02:25:48;;;;;;;36.72;26.60;;;154.00;2252.80;;;;;;4941001;29;20404;-80
2022/04/04 02:28:15;;;;;;;37.83;26.17;;;153.80;2252.80;;;;;;4942068;29;20065;-79
2022/04/04 02:30:43;;;;;;;35.53;25.63;;;154.00;2252.80;;;;;;4940806;29;20451;-76
2022/04/04 02:33:09;;;;;;;33.70;25.45;;;154.10;2252.80;;;;;;4940929;29;20070;-77
2022/04/04 02:35:35;;;;;;;32.95;23.52;;;153.90;2252.80;;;;;;4940002;29;20113;-78
2022/04/04 02:38:02;;;;;;;31.15;22.92;;;153.80;2252.80;;;;;;4939907;29;20078;-77
2022/04/04 02:40:29;;;;;;;32.90;23.50;;;153.90;2252.80;;;;;;4939741;29;20051;-79
2022/04/04 02:42:55;;;;;;;31.30;21.92;;;153.80;2252.80;;;;;;4939597;29;20031;-76
2022/04/04 02:45:21;;;;;;;35.08;23.75;;;153.80;2252.80;;;;;;4939871;29;20345;-75
2022/04/04 02:47:47;;;;;;;31.27;23.55;;;153.90;2252.80;;;;;;4939960;29;20367;-77
2022/04/04 02:50:14;;;;;;;38.08;25.45;;;153.80;2252.80;;;;;;4939478;29;20038;-78
2022/04/04 02:52:40;;;;;;;35.85;24.67;;;153.90;2252.80;;;;;;4939582;29;20071;-77
2022/04/04 02:57:52;;;;;;;30.77;23.80;;;153.80;2252.80;;;;;;4956503;29;20062;-78
2022/04/04 03:00:19;;;;;;;29.50;21.58;;;153.80;2252.80;;;;;;4939610;29;20448;-78
2022/04/04 03:02:48;;;;;;;30.65;22.20;;;153.90;2252.80;;;;;;4940100;29;20027;-77
2022/04/04 03:05:14;;;;;;;26.95;20.98;;;153.80;2252.80;;;;;;4940094;29;20042;-78
2022/04/04 03:07:41;;;;;;;27.58;20.42;;;153.90;2252.80;;;;;;4939529;29;20047;-79
2022/04/04 03:10:08;;;;;;;27.95;19.73;;;153.90;2252.80;;;;;;4939374;29;20113;-76
2022/04/04 03:12:43;;;;;;;26.05;20.38;;;153.80;2252.80;;;;;;4939300;29;20114;-75
2022/04/04 03:15:16;;;;;;;28.20;21.65;;;153.80;2252.80;;;;;;4939716;29;20043;-80
2022/04/04 03:17:43;;;;;;;27.63;20.45;;;153.80;2252.80;;;;;;4939399;29;20027;-79
2022/04/04 03:20:11;;;;;;;29.02;20.98;;;153.90;2252.80;;;;;;4939216;29;20026;-77
2022/04/04 03:22:39;;;;;;;27.00;20.30;;;153.80;2252.80;;;;;;4939792;29;20047;-76
2022/04/04 03:25:06;;;;;;;27.90;20.15;;;153.70;2252.80;;;;;;4938666;29;20031;-79
2022/04/04 03:27:32;;;;;;;26.38;20.30;;;153.70;2252.80;;;;;;4939297;29;20054;-75
2022/04/04 03:29:58;;;;;;;27.70;20.70;;;153.80;2252.80;;;;;;4939190;29;20027;-76
2022/04/04 03:32:24;;;;;;;32.03;23.05;;;153.60;2252.80;;;;;;4938640;29;20038;-74
2022/04/04 03:34:50;;;;;;;27.30;21.35;;;153.70;2252.80;;;;;;4938464;29;20030;-76
2022/04/04 03:37:16;;;;;;;28.55;22.35;;;153.80;2252.80;;;;;;4939078;29;20035;-76
2022/04/04 03:39:42;;;;;;;32.33;23.42;;;153.70;2252.80;;;;;;4938295;29;20448;-76
2022/04/04 03:42:08;;;;;;;33.05;23.95;;;153.60;2252.80;;;;;;4938932;29;20027;-78
2022/04/04 03:44:34;;;;;;;35.15;25.70;;;153.70;2252.80;;;;;;4939169;29;20020;-79
2022/04/04 03:47:00;;;;;;;32.22;23.48;;;153.80;2252.80;;;;;;4938989;29;20043;-77
2022/04/04 03:49:26;;;;;;;35.33;23.77;;;153.80;2252.80;;;;;;4939003;29;20058;-76
2022/04/04 03:51:52;;;;;;;71.80;62.53;;;153.70;2252.80;;;;;;4939202;29;20399;-78
2022/04/04 03:54:18;;;;;;;57.58;39.60;;;128.80;2252.80;;;;;;4939440;29;20030;-78
2022/04/04 03:56:45;;;;;;;39.50;27.40;;;128.70;2252.80;;;;;;4939869;29;20464;-77
2022/04/04 03:59:12;;;;;;;53.38;37.97;;;128.50;2252.80;;;;;;4939228;29;20061;-76
2022/04/04 04:01:39;;;;;;;42.33;32.83;;;128.40;2252.80;;;;;;4939249;29;20023;-78
2022/04/04 04:04:05;;;;;;;38.65;30.15;;;128.50;2252.80;;;;;;4939004;29;20523;-77
2022/04/04 04:06:33;;;;;;;40.25;28.38;;;128.70;2252.80;;;;;;4938737;29;20024;-77
2022/04/04 04:08:59;;;;;;;38.92;28.52;;;128.90;2252.80;;;;;;4938508;29;20423;-77
2022/04/04 04:11:27;;;;;;;36.58;26.50;;;128.80;2252.80;;;;;;4938599;29;20023;-77
2022/04/04 04:13:53;;;;;;;35.45;27.05;;;128.80;2252.80;;;;;;4938378;29;20093;-76
2022/04/04 04:16:20;;;;;;;32.63;24.80;;;128.80;2252.80;;;;;;4955347;29;20027;-77
2022/04/04 04:18:46;;;;;;;30.40;23.23;;;128.90;2252.80;;;;;;4938540;29;20057;-76
2022/04/04 04:21:12;;;;;;;32.17;24.02;;;128.90;2252.80;;;;;;4938158;29;20054;-76
2022/04/04 04:23:40;;;;;;;37.65;24.05;;;153.60;2252.80;;;;;;4938955;29;20028;-76
2022/04/04 04:26:07;;;;;;;34.65;23.67;;;153.70;2252.80;;;;;;4939367;29;20027;-76
2022/04/04 04:28:34;;;;;;;32.40;24.67;;;153.70;2252.80;;;;;;4938944;29;20019;-78
2022/04/04 04:31:00;;;;;;;38.33;26.65;;;153.70;2252.80;;;;;;4938897;29;20047;-76
2022/04/04 04:33:26;;;;;;;37.47;25.50;;;153.60;2252.80;;;;;;4939407;29;20020;-77
2022/04/04 04:35:52;;;;;;;37.55;27.73;;;128.90;2252.80;;;;;;4939460;29;20062;-78
2022/04/04 04:38:18;;;;;;;44.28;30.27;;;128.70;2252.80;;;;;;4939537;29;20023;-78
2022/04/04 04:40:44;;;;;;;43.13;32.33;;;128.80;2252.80;;;;;;4936229;29;20396;-76
2022/04/04 04:43:11;;;;;;;43.35;33.38;;;128.50;2252.80;;;;;;4936323;29;20035;-78
2022/04/04 04:45:37;;;;;;;35.95;27.80;;;128.70;2252.80;;;;;;4936522;29;20032;-79
2022/04/04 04:48:03;;;;;;;45.22;29.60;;;128.60;2252.80;;;;;;4939685;29;20452;-76
2022/04/04 04:50:29;;;;;;;34.40;26.50;;;128.80;2252.80;;;;;;4939398;29;20035;-76
2022/04/04 04:52:57;;;;;;;35.20;26.95;;;128.80;2252.80;;;;;;4939556;29;20019;-78
2022/04/04 04:55:24;;;;;;;31.20;23.90;;;128.90;2252.80;;;;;;4939545;29;20074;-77
2022/04/04 04:57:52;;;;;;;32.60;25.60;;;128.80;2252.80;;;;;;4939056;29;20019;-80
2022/04/04 05:00:22;;;;;;;87.55;59.95;;;128.80;2252.80;;;;;;4939068;29;20027;-81
2022/04/04 05:03:24;;;;;;;41.72;32.63;;;128.80;2252.80;;;;;;4939084;29;20114;-79
2022/04/04 05:05:36;;;;;;;47.88;35.70;;;128.80;2252.80;;;;;;4940430;29;20023;-78
2022/04/04 05:08:02;;;;;;;40.65;29.25;;;128.70;2252.80;;;;;;4939481;29;20028;-75
2022/04/04 05:10:29;;;;;;;46.67;30.30;;;128.90;2252.80;;;;;;4940661;29;20031;-78
2022/04/04 05:12:56;;;;;;;50.72;33.72;;;128.80;2252.80;;;;;;4940537;29;20092;-78
2022/04/04 05:15:23;;;;;;;44.25;30.92;;;128.90;2252.80;;;;;;4938897;29;20027;-79
2022/04/04 05:17:50;;;;;;;45.85;34.13;;;153.70;2252.80;;;;;;4938149;29;20039;-77
2022/04/04 05:20:16;;;;;;;57.50;39.42;;;153.70;2252.80;;;;;;4938626;29;20110;-78
2022/04/04 05:22:42;;;;;;;48.13;36.20;;;153.70;2252.80;;;;;;4938666;29;20058;-77
2022/04/04 05:25:08;;;;;;;50.22;32.50;;;153.60;2252.80;;;;;;4938059;29;20349;-78
2022/04/04 05:27:36;;;;;;;41.65;30.20;;;153.60;2252.80;;;;;;4938398;29;20595;-77
2022/04/04 05:30:02;;;;;;;44.80;30.70;;;153.60;2252.80;;;;;;4939164;29;20051;-77
2022/04/04 05:32:29;;;;;;;40.88;30.70;;;153.70;2252.80;;;;;;4938496;29;20040;-77
2022/04/04 05:34:55;;;;;;;49.15;36.63;;;153.80;2252.80;;;;;;4938244;29;20511;-79
2022/04/04 05:37:21;;;;;;;73.05;46.63;;;153.90;2252.80;;;;;;4937964;29;20034;-76
2022/04/04 05:39:47;;;;;;;69.03;41.67;;;154.00;2252.80;;;;;;4937816;29;20048;-77
2022/04/04 05:42:13;;;;;;;62.63;41.95;;;154.10;2252.80;;;;;;4937877;29;20031;-79
2022/04/04 05:44:38;;;;;;;76.95;50.80;;;154.20;2252.80;;;;;;4937754;29;20019;-78
2022/04/04 05:47:05;;;;;;;62.38;40.67;;;154.00;2252.80;;;;;;4937645;29;20068;-79
2022/04/04 05:49:31;;;;;;;50.47;36.58;;;154.10;2252.80;;;;;;4937571;29;20047;-79
2022/04/04 05:51:56;;;;;;;44.65;29.92;;;154.10;2252.80;;;;;;4937873;29;20023;-79
2022/04/04 05:54:22;;;;;;;48.63;33.80;;;154.20;2252.80;;;;;;4937844;29;20023;-77
2022/04/04 05:56:49;;;;;;;49.35;36.10;;;154.20;2252.80;;;;;;4937426;29;20032;-79
2022/04/04 05:59:14;;;;;;;85.50;55.92;;;154.20;2252.80;;;;;;4936685;29;20032;-77
2022/04/04 06:01:41;;;;;;;46.03;29.10;;;154.20;2252.80;;;;;;4937566;29;20372;-77
2022/04/04 06:04:07;;;;;;;45.13;33.38;;;154.50;2252.80;;;;;;4937648;29;20507;-75
2022/04/04 06:06:33;;;;;;;39.08;30.15;;;154.20;2252.80;;;;;;4937101;29;20024;-77
2022/04/04 06:08:59;;;;;;;33.33;23.98;;;154.30;2252.80;;;;;;4937294;29;20035;-78
2022/04/04 06:11:25;;;;;;;34.97;26.88;;;154.40;2252.80;;;;;;4937934;29;20043;-76
2022/04/04 06:13:51;;;;;;;35.55;27.67;;;154.40;2252.80;;;;;;4937837;29;20023;-77
2022/04/04 06:16:17;;;;;;;42.72;28.45;;;154.30;2252.80;;;;;;4937974;29;20074;-76
2022/04/04 06:18:43;;;;;;;35.17;29.27;;;154.40;2252.80;;;;;;4937351;29;20024;-80
2022/04/04 06:21:09;;;;;;;31.95;24.25;;;154.50;2252.80;;;;;;4936941;29;20068;-76
2022/04/04 06:23:36;;;;;;;32.13;25.13;;;179.20;2252.80;;;;;;4937408;29;20460;-80
2022/04/04 06:26:05;;;;;;;38.25;27.55;;;179.30;2252.80;;;;;;4937041;29;20456;-78
2022/04/04 06:28:34;;;;;;;44.22;32.20;;;179.40;2252.80;;;;;;4936944;29;20079;-81
2022/04/04 06:31:02;;;;;;;29.05;23.25;;;179.40;2252.80;;;;;;4937254;29;20056;-76
2022/04/04 06:33:28;;;;;;;26.48;20.88;;;179.50;2252.80;;;;;;4937357;29;20448;-77
2022/04/04 06:35:54;;;;;;;34.70;25.02;;;179.50;2252.80;;;;;;4936348;29;20074;-79
2022/04/04 06:38:20;;;;;;;29.35;21.73;;;179.40;2252.80;;;;;;4936856;29;20024;-79
2022/04/04 06:40:46;;;;;;;39.20;27.15;;;179.30;2252.80;;;;;;4936662;29;20059;-78
2022/04/04 06:43:12;;;;;;;37.80;25.85;;;179.30;2252.80;;;;;;4936542;29;20051;-76
2022/04/04 06:45:38;;;;;;;25.45;19.42;;;179.40;2252.80;;;;;;4936726;29;20028;-78
2022/04/04 06:48:04;;;;;;;26.65;19.05;;;179.50;2252.80;;;;;;4936095;29;20062;-79
2022/04/04 06:50:30;;;;;;;27.15;19.42;;;179.50;2252.80;;;;;;4936658;29;20031;-78
2022/04/04 06:52:57;;;;;;;29.15;23.02;;;179.70;2252.80;;;;;;4938035;29;20364;-75
2022/04/04 06:55:24;;;;;;;28.40;21.08;;;179.70;2252.80;;;;;;4936265;29;20027;-77
2022/04/04 06:57:50;;;;;;;35.83;26.65;;;179.80;2252.80;;;;;;4936109;29;20035;-78
2022/04/04 07:00:16;;;;;;;36.50;27.48;;;179.60;2252.80;;;;;;4936282;29;20042;-80
2022/04/04 07:02:44;;;;;;;40.10;30.15;;;179.70;2252.80;;;;;;4935870;29;20024;-76
2022/04/04 07:05:10;;;;;;;47.22;36.72;;;179.70;2252.80;;;;;;4936171;29;20448;-79
2022/04/04 07:07:36;;;;;;;40.15;31.33;;;179.70;2252.80;;;;;;4935925;29;20137;-76
2022/04/04 07:10:06;;;;;;;24.92;19.10;;;179.90;2252.80;;;;;;4934852;29;20024;-78
2022/04/04 07:12:33;;;;;;;28.67;19.40;;;179.70;2252.80;;;;;;4936159;29;20070;-74
2022/04/04 07:14:59;;;;;;;25.13;19.60;;;179.70;2252.80;;;;;;4935929;29;20023;-76
2022/04/04 07:17:24;;;;;;;20.73;15.48;;;179.60;2252.80;;;;;;4935569;29;20040;-76
2022/04/04 07:19:52;;;;;;;29.75;23.38;;;179.70;2252.80;;;;;;4935872;29;20026;-77
2022/04/04 07:22:18;;;;;;;24.27;18.90;;;179.70;2252.80;;;;;;4936292;29;20023;-78
2022/04/04 07:24:44;;;;;;;35.67;27.98;;;179.80;2252.80;;;;;;4938945;29;20054;-76
2022/04/04 07:27:10;;;;;;;27.92;22.52;;;179.80;2252.80;;;;;;4936761;29;20460;-79
2022/04/04 07:29:36;;;;;;;28.52;21.45;;;179.80;2252.80;;;;;;4936259;29;20155;-77
2022/04/04 07:32:04;;;;;;;27.92;21.65;;;179.90;2252.80;;;;;;4935835;29;20091;-77
2022/04/04 07:34:30;;;;;;;44.22;31.23;;;204.80;2252.80;;;;;;4936386;29;20120;-79
2022/04/04 07:36:56;;;;;;;39.38;27.02;;;180.00;2252.80;;;;;;4935697;29;20048;-78
2022/04/04 07:39:22;;;;;;;28.58;22.45;;;180.00;2252.80;;;;;;4936236;29;20095;-80
2022/04/04 07:41:48;;;;;;;28.30;20.77;;;204.90;2252.80;;;;;;4936164;29;20024;-80
2022/04/04 07:44:14;;;;;;;28.33;19.90;;;204.80;2252.80;;;;;;4936261;29;20028;-78
2022/04/04 07:46:40;;;;;;;25.88;19.33;;;204.90;2252.80;;;;;;4936761;29;20024;-76
2022/04/04 07:49:06;;;;;;;23.58;18.35;;;204.80;2252.80;;;;;;4936522;29;20074;-77
2022/04/04 07:51:32;;;;;;;25.73;18.67;;;205.00;2252.80;;;;;;4936224;29;20055;-79
2022/04/04 07:53:58;;;;;;;25.17;18.70;;;205.10;2252.80;;;;;;4936111;29;20364;-79
2022/04/04 07:56:23;;;;;;;30.52;18.50;;;205.30;2252.80;;;;;;4935868;29;20036;-76
2022/04/04 07:58:49;;;;;;;23.13;17.13;;;205.40;2252.80;;;;;;4936093;29;20035;-79
2022/04/04 08:01:15;;;;;;;52.50;40.95;;;205.60;2252.80;;;;;;4936083;29;20027;-76
2022/04/04 08:03:41;;;;;;;26.50;21.98;;;205.40;2252.80;;;;;;4935923;29;20024;-77
2022/04/04 08:06:07;;;;;;;24.83;20.33;;;205.40;2252.80;;;;;;4935379;29;20035;-77
2022/04/04 08:08:33;;;;;;;27.05;21.35;;;205.40;2252.80;;;;;;4936231;29;20030;-76
2022/04/04 08:11:00;;;;;;;22.80;16.63;;;205.50;2252.80;;;;;;4936223;29;20515;-81
2022/04/04 08:13:26;;;;;;;51.58;37.50;;;205.50;2252.80;;;;;;4935740;29;20067;-77
2022/04/04 08:15:53;;;;;;;34.78;25.55;;;205.50;2252.80;;;;;;4935703;29;20028;-78
2022/04/04 08:18:19;;;;;;;24.13;17.67;;;205.50;2252.80;;;;;;4936122;29;20034;-79
2022/04/04 08:20:45;;;;;;;26.92;17.92;;;205.60;2252.80;;;;;;4936334;29;20032;-78
2022/04/04 08:23:11;;;;;;;27.13;20.23;;;205.50;2252.80;;;;;;4940384;29;20023;-77
2022/04/04 08:25:37;;;;;;;43.45;28.17;;;230.50;2252.80;;;;;;4941924;29;20079;-78
2022/04/04 08:28:13;;;;;;;27.48;20.70;;;256.10;2252.80;;;;;;4940748;29;20028;-85
2022/04/04 08:30:41;;;;;;;31.00;25.30;;;230.60;2252.80;;;;;;4939161;29;20468;-82
2022/04/04 08:33:11;;;;;;;34.97;28.00;;;230.70;2252.80;;;;;;4937986;29;20027;-82
2022/04/04 08:35:40;;;;;;;28.13;23.20;;;230.80;2252.80;;;;;;4938519;29;20083;-82
2022/04/04 08:38:15;;;;;;;36.05;26.50;;;230.80;2252.80;;;;;;4938628;29;20020;-84
2022/04/04 08:40:43;;;;;;;42.03;28.55;;;230.60;2252.80;;;;;;4938213;29;20043;-82
2022/04/04 08:43:12;;;;;;;33.20;24.50;;;230.60;2252.80;;;;;;4938885;29;20495;-84
2022/04/04 08:46:19;;;;;;;29.38;23.42;;;230.70;2252.80;;;;;;4942543;29;20020;-84
2022/04/04 08:49:06;;;;;;;58.97;40.80;;;230.70;2252.80;;;;;;4938693;29;20023;-85
2022/04/04 08:52:24;;;;;;;70.22;43.20;;;230.80;2252.80;;;;;;4939286;29;20046;-82
2022/04/04 08:55:43;;;;;;;54.78;43.35;;;230.90;2252.80;;;;;;4933679;29;20111;-84
2022/04/04 08:59:15;;;;;;;35.78;24.98;;;231.00;2252.80;;;;;;4899853;29;20037;-82
2022/04/04 09:01:49;;;;;;;31.80;24.30;;;231.10;2252.80;;;;;;4849838;29;20106;-81
2022/04/04 09:05:31;;;;;;;29.27;24.70;;;231.20;2252.80;;;;;;4940637;29;20043;-84
2022/04/04 09:18:55;;;;;;;21.08;17.50;;;256.40;2176.00;;;;;;4855665;29;20113;-83
2022/04/04 09:28:21;;;;;;;21.52;17.63;;;256.20;2124.80;;;;;;4861504;29;20064;-84
2022/04/04 09:31:07;;;;;;;26.88;20.35;;;231.30;2150.40;;;;;;4853955;29;20022;-84
2022/04/04 09:37:49;;;;;;;22.23;17.50;;;256.30;2176.00;;;;;;4929431;29;20526;-84
2022/04/04 10:43:20;;;;;;;17.05;13.63;;;307.80;2073.60;;;;;;4787304;30;20526;-83
2022/04/04 11:02:35;;;;;;;18.67;14.90;;;307.90;2022.40;;;;;;4880246;29;20040;-80
2022/04/04 11:08:02;;;;;;;24.05;19.00;;;307.90;2022.40;;;;;;4880009;29;20031;-77
2022/04/04 11:10:41;;;;;;;28.75;23.58;;;332.80;2124.80;;;;;;4884830;29;20036;-76
2022/04/04 11:13:28;;;;;;;;;;;;;;;;;;;;;
2022/04/04 11:31:26;;;;;;;20.60;17.85;;;333.70;1996.80;;;;;;4725285;26;20060;-81
2022/04/04 11:38:05;;;;;;;13.23;11.00;;;358.70;2022.40;;;;;;4919536;29;20091;-84
2022/04/04 11:40:39;;;;;;;18.10;13.50;;;333.40;1971.20;;;;;;4847870;29;20466;-79
2022/04/04 11:43:11;;;;;;;17.40;14.70;;;333.30;1996.80;;;;;;4915353;29;20028;-83
2022/04/04 11:49:40;;;;;;;20.05;14.77;;;333.30;2048.00;;;;;;4892404;29;20036;-82
2022/04/04 11:52:17;;;;;;;17.55;14.65;;;332.90;2022.40;;;;;;4898785;29;20067;-82
2022/04/04 11:54:53;;;;;;;17.23;15.38;;;307.80;2048.00;;;;;;4901596;29;20478;-83
2022/04/04 11:57:23;;;;;;;18.48;15.35;;;332.90;2073.60;;;;;;4904444;29;20035;-82
2022/04/04 12:00:02;;;;;;;19.75;15.05;;;308.00;2048.00;;;;;;4903945;29;20098;-82
2022/04/04 12:03:16;;;;;;;27.75;20.98;;;308.00;2048.00;;;;;;4904024;29;20032;-82
2022/04/04 12:06:45;;;;;;;32.40;20.67;;;307.80;2073.60;;;;;;4903966;29;20503;-82
2022/04/04 12:09:33;;;;;;;22.67;15.95;;;307.80;2073.60;;;;;;4912894;29;20040;-83
2022/04/04 12:12:39;;;;;;;18.30;14.00;;;307.60;2073.60;;;;;;4898640;29;20029;-86
2022/04/04 12:18:53;;;;;;;24.17;17.48;;;307.50;2073.60;;;;;;4920799;29;20091;-82
2022/04/04 12:21:33;;;;;;;21.00;15.75;;;307.90;2048.00;;;;;;4903399;29;20494;-81
2022/04/04 12:27:05;;;;;;;22.83;14.18;;;332.90;2099.20;;;;;;4906475;29;20040;-83
2022/04/04 12:32:43;;;;;;;18.73;13.50;;;308.00;2048.00;;;;;;4920613;29;20059;-82
2022/04/04 12:40:02;;;;;;;14.73;9.52;;;307.80;2048.00;;;;;;4847235;29;20095;-82
2022/04/04 12:42:13;;;;;;;13.75;11.02;;;307.50;2048.00;;;;;;4900802;29;20044;-80
2022/04/04 12:44:39;;;;;;;12.00;9.85;;;307.50;2073.60;;;;;;4903322;29;20030;-82
2022/04/04 12:47:10;;;;;;;17.20;12.85;;;307.40;2073.60;;;;;;4903302;29;20032;-84
2022/04/04 12:50:21;;;;;;;35.53;26.80;;;307.50;2073.60;;;;;;4902987;29;20024;-81
2022/04/04 12:53:07;;;;;;;25.88;19.20;;;307.70;2073.60;;;;;;4903102;29;20039;-81
2022/04/04 12:55:40;;;;;;;21.85;16.75;;;307.80;2073.60;;;;;;4902953;29;20516;-82
2022/04/04 12:58:22;;;;;;;23.10;15.10;;;307.80;2073.60;;;;;;4903093;29;20029;-80
2022/04/04 13:00:50;;;;;;;14.80;11.98;;;307.90;2048.00;;;;;;4902942;29;20499;-79
2022/04/04 13:03:24;;;;;;;18.92;13.77;;;307.80;2048.00;;;;;;4902610;29;20032;-76
2022/04/04 13:05:52;;;;;;;18.42;11.55;;;307.90;2073.60;;;;;;4902979;29;20028;-78
2022/04/04 13:08:23;;;;;;;26.55;18.65;;;308.00;2073.60;;;;;;4902996;29;20122;-82
2022/04/04 13:11:50;;;;;;;22.33;16.45;;;307.80;2022.40;;;;;;4903089;29;20119;-78
2022/04/04 13:14:20;;;;;;;17.88;12.45;;;307.90;2022.40;;;;;;4920319;29;20528;-78
2022/04/04 13:17:25;;;;;;;;;;;;;;;;;;;;;
2022/04/04 13:20:15;;;;;;;17.70;12.40;;;307.70;2073.60;;;;;;4913095;29;20026;-80
2022/04/04 13:22:56;;;;;;;22.48;14.40;;;307.60;2124.80;;;;;;4902892;29;20027;-81
2022/04/04 13:25:46;;;;;;;41.00;18.55;;;307.70;2176.00;;;;;;4902317;29;20469;-79
2022/04/04 13:31:38;;;;;;;27.67;18.48;;;307.90;2124.80;;;;;;4860737;29;20048;-79
2022/04/04 13:38:36;;;;;;;29.17;18.15;;;307.90;2252.80;;;;;;4833067;29;20286;-78
2022/04/04 13:41:10;;;;;;;17.23;14.00;;;307.90;2201.60;;;;;;4907552;29;20043;-78
2022/04/04 13:43:37;;;;;;;21.65;17.38;;;307.90;2176.00;;;;;;4902243;29;20183;-82
2022/04/04 13:46:04;;;;;;;19.65;12.75;;;308.00;2227.20;;;;;;4901928;29;20020;-79
2022/04/04 13:48:30;;;;;;;12.05;8.60;;;307.80;2176.00;;;;;;4902631;29;20044;-81
2022/04/04 13:54:50;;;;;;;44.25;28.85;;;307.90;2201.60;;;;;;4902277;29;20499;-81
2022/04/04 13:56:57;;;;;;;28.98;19.50;;;308.00;2176.00;;;;;;4911014;29;20043;-77
2022/04/04 13:59:23;;;;;;;27.60;19.25;;;308.10;2176.00;;;;;;4902135;29;20080;-82
2022/04/04 14:01:49;;;;;;;19.83;16.15;;;308.10;2201.60;;;;;;4902010;29;20032;-83
2022/04/04 14:04:15;;;;;;;28.73;18.73;;;332.90;2227.20;;;;;;4902219;29;20025;-80
2022/04/04 14:07:10;;;;;;;18.80;14.63;;;332.90;2176.00;;;;;;4902014;29;20032;-81
2022/04/04 14:09:37;;;;;;;20.70;14.95;;;333.00;2201.60;;;;;;4886562;29;20504;-79
2022/04/04 14:12:04;;;;;;;22.35;19.23;;;333.00;2176.00;;;;;;4901776;29;20036;-77
2022/04/04 14:14:31;;;;;;;25.80;20.35;;;333.10;2201.60;;;;;;4901437;29;20028;-83
2022/04/04 14:16:58;;;;;;;33.25;24.27;;;333.40;2150.40;;;;;;4901802;29;20035;-79
2022/04/04 14:19:58;;;;;;;26.95;18.55;;;333.30;2176.00;;;;;;4900425;29;20032;-79
2022/04/04 14:22:24;;;;;;;26.88;21.38;;;333.30;2150.40;;;;;;4901449;29;20020;-80
2022/04/04 14:24:54;;;;;;;22.55;15.50;;;333.30;2124.80;;;;;;4901733;29;20035;-79
2022/04/04 14:27:21;;;;;;;26.17;17.95;;;333.20;2124.80;;;;;;4901459;29;20063;-82
2022/04/04 14:29:58;;;;;;;29.60;21.40;;;333.20;2150.40;;;;;;4901387;29;20504;-80
2022/04/04 14:32:24;;;;;;;21.13;16.15;;;333.30;2150.40;;;;;;4901757;29;20031;-80
2022/04/04 14:34:56;;;;;;;22.92;14.05;;;333.20;2150.40;;;;;;4901062;29;20436;-79
2022/04/04 14:37:42;;;;;;;;;;;;;;;;;;;;;
2022/04/04 14:40:09;;;;;;;34.97;25.05;;;333.10;2124.80;;;;;;4918291;29;20024;-80
2022/04/04 14:42:36;;;;;;;32.92;22.70;;;333.20;2150.40;;;;;;4900973;29;20388;-82
2022/04/04 14:45:04;;;;;;;25.92;19.33;;;333.20;2124.80;;;;;;4901546;29;20030;-81
2022/04/04 14:47:31;;;;;;;29.10;17.90;;;333.20;2124.80;;;;;;4901082;29;20091;-82
2022/04/04 15:00:49;;;;;;;38.22;23.75;;;333.10;2176.00;;;;;;4787086;30;20046;-79
2022/04/04 15:03:15;;;;;;;40.78;23.42;;;333.10;2176.00;;;;;;4786501;30;20405;-82
2022/04/04 15:05:42;;;;;;;65.85;38.13;;;333.00;2150.40;;;;;;4814643;29;20095;-78